ADDS METAR Data INFO
IDs: Format: Raw Decoded Include TAF

Data at: 0716 UTC 24 Jun 2018

KA39 240655Z AUTO 25004KT 10SM SCT050 SCT085 SCT095 32/10 A2980 RMK AO2
KA39 240635Z AUTO 12005KT 10SM SCT050 SCT085 30/11 A2979 RMK AO2
KA39 240615Z AUTO 17003KT 10SM SCT050 30/11 A2979 RMK AO2
KA39 240555Z AUTO 17004KT 10SM SCT050 SCT075 SCT100 31/11 A2979 RMK AO2
KA39 240535Z AUTO 00000KT 10SM SCT100 SCT120 31/12 A2979 RMK AO2
KA39 240515Z AUTO 15003KT 10SM SCT100 BKN120 31/12 A2979 RMK AO2
KA39 240455Z AUTO 24004KT 10SM SCT075 BKN100 32/12 A2978 RMK AO2
KA39 240435Z AUTO 26004KT 10SM BKN100 OVC120 32/12 A2978 RMK AO2
KA39 240415Z AUTO 27006KT 7SM SCT070 BKN090 OVC120 33/12 A2977 RMK AO2
KA39 240355Z AUTO 29008KT 10SM BKN095 BKN110 35/10 A2977 RMK AO2
KA39 240335Z AUTO 30012KT 10SM BKN095 OVC120 36/10 A2976 RMK AO2
KA39 240315Z AUTO 30013KT 10SM BKN095 OVC120 36/11 A2975 RMK AO2
KA39 240255Z AUTO 30014KT 7SM BKN095 BKN120 37/11 A2975 RMK AO2
KA39 240235Z AUTO 29013KT 7SM BKN100 BKN120 37/10 A2974 RMK AO2
KA39 240215Z AUTO 30012G19KT 10SM SCT070 BKN100 OVC120 39/10 A2973 RMK AO2
KA39 240155Z AUTO 29011KT 10SM SCT100 SCT120 38/13 A2973 RMK AO2
KA39 240135Z AUTO 29009KT 10SM SCT110 41/06 A2972 RMK AO2
KA39 240115Z AUTO 29005KT 10SM SCT095 BKN120 41/05 A2972 RMK AO2
KA39 240055Z AUTO 28006KT 10SM SCT075 BKN095 OVC120 41/06 A2972 RMK AO2
KA39 240035Z AUTO 00000KT 10SM BKN095 OVC120 41/05 A2972 RMK AO2
KA39 240015Z AUTO 31003KT 10SM BKN095 OVC120 41/05 A2973 RMK AO2
KA39 232355Z AUTO 31006KT 10SM BKN095 OVC120 41/05 A2974 RMK AO2
KA39 232335Z AUTO 29009KT 10SM OVC095 42/06 A2974 RMK AO2
KA39 232315Z AUTO 24007KT 10SM SCT080 BKN095 OVC120 41/07 A2975 RMK AO2
KA39 232255Z AUTO 24003KT 10SM SCT080 BKN095 OVC120 41/06 A2976 RMK AO2
KA39 232235Z AUTO 21005KT 10SM BKN095 OVC120 41/06 A2976 RMK AO2
KA39 232215Z AUTO 27008KT 230V300 10SM BKN095 OVC120 41/08 A2977 RMK AO2
KA39 232155Z AUTO 19009KT 10SM OVC095 41/06 A2977 RMK AO2
KA39 232135Z AUTO 20008KT 10SM OVC095 41/06 A2978 RMK AO2
KA39 232115Z AUTO 17007KT 10SM BKN095 OVC120 40/06 A2980 RMK AO2
KA39 232055Z AUTO 22011KT 10SM SCT075 BKN095 BKN120 40/06 A2980 RMK AO2
KA39 232035Z AUTO 27007KT 250V320 10SM SCT075 SCT095 SCT120 40/06 A2981 RMK AO2
KA39 232015Z AUTO 26003KT 10SM SCT110 39/07 A2982 RMK AO2
KA39 231955Z AUTO 16006KT 10SM SCT120 39/07 A2983 RMK AO2
KA39 231935Z AUTO 24007KT 10SM SCT100 SCT120 39/07 A2983 RMK AO2
KA39 231915Z AUTO 26007KT 10SM BKN100 BKN120 38/06 A2984 RMK AO2
KA39 231855Z AUTO 31008KT 10SM BKN100 BKN120 38/06 A2985 RMK AO2
KA39 231835Z AUTO 29009KT 10SM SCT055 37/08 A2986 RMK AO2
KA39 231815Z AUTO 25009KT 10SM SCT055 SCT065 37/08 A2986 RMK AO2
KA39 231755Z AUTO 28004KT 10SM SCT055 SCT065 37/09 A2986 RMK AO2
KA39 231735Z AUTO 18009KT 10SM SCT055 37/08 A2987 RMK AO2
KA39 231715Z AUTO 19010KT 10SM 36/10 A2987 RMK AO2
KA39 231655Z AUTO 18008KT 10SM 35/10 A2987 RMK AO2
KA39 231635Z AUTO 18009KT 10SM 34/09 A2987 RMK AO2
KA39 231615Z AUTO 19009KT 10SM 34/09 A2987 RMK AO2
KA39 231555Z AUTO 16012KT 10SM 33/10 A2987 RMK AO2
KA39 231535Z AUTO 16010KT 7SM BKN090 OVC120 32/10 A2986 RMK AO2
KA39 231515Z AUTO 16010KT 10SM SCT075 BKN090 BKN120 32/07 A2986 RMK AO2
KA39 231455Z AUTO 16010KT 10SM SCT075 SCT090 SCT110 31/06 A2986 RMK AO2
KA39 231435Z AUTO 16010KT 10SM BKN090 BKN110 30/07 A2985 RMK AO2
KA39 231415Z AUTO 16009KT 10SM BKN090 OVC120 28/09 A2984 RMK AO2
KA39 231355Z AUTO 16008KT 10SM BKN090 OVC120 28/08 A2983 RMK AO2
KA39 231335Z AUTO 15008KT 10SM BKN090 OVC120 27/06 A2982 RMK AO2
KA39 231315Z AUTO 14008KT 10SM BKN090 OVC120 26/05 A2982 RMK AO2
KA39 231255Z AUTO 14009KT 10SM BKN100 OVC120 26/05 A2981 RMK AO2
KA39 231235Z AUTO 13010KT 10SM BKN100 BKN120 26/05 A2979 RMK AO2
KA39 231215Z AUTO 13011KT 10SM SCT100 BKN120 27/05 A2979 RMK AO2
KA39 231155Z AUTO 13009KT 10SM BKN110 27/05 A2978 RMK AO2
KA39 231135Z AUTO 14011KT 10SM SCT100 SCT120 27/05 A2977 RMK AO2
KA39 231115Z AUTO 13010KT 10SM SCT095 26/05 A2977 RMK AO2
KA39 231055Z AUTO 12009KT 10SM BKN095 26/05 A2976 RMK AO2
KA39 231035Z AUTO 12009KT 10SM BKN095 OVC120 26/05 A2976 RMK AO2
KA39 231015Z AUTO 12009KT 10SM BKN085 OVC110 26/05 A2976 RMK AO2
KA39 230955Z AUTO 11008KT 10SM SCT075 SCT095 BKN110 26/06 A2975 RMK AO2
KA39 230935Z AUTO 13008KT 10SM SCT055 SCT095 BKN120 26/06 A2975 RMK AO2
KA39 230915Z AUTO 13008KT 10SM BKN095 OVC120 27/06 A2975 RMK AO2
KA39 230855Z AUTO 11007KT 10SM SCT060 SCT095 BKN120 27/05 A2975 RMK AO2
KA39 230835Z AUTO 14008KT 10SM SCT050 SCT085 28/05 A2975 RMK AO2
KA39 230815Z AUTO 13008KT 10SM SCT055 SCT085 29/06 A2975 RMK AO2
KA39 230755Z AUTO 14006KT 10SM SCT055 SCT085 27/05 A2974 RMK AO2
KA39 230735Z AUTO 00000KT 10SM 28/05 A2974 RMK AO2
KA39 230715Z AUTO 00000KT 10SM 29/07 A2974 RMK AO2
KA39 230655Z AUTO 17004KT 10SM 30/07 A2975 RMK AO2
KA39 230635Z AUTO 19004KT 10SM SCT060 SCT075 30/08 A2975 RMK AO2
KA39 230615Z AUTO 23003KT 10SM 30/08 A2974 RMK AO2
KA39 230555Z AUTO 23003KT 10SM CLR 30/08 A2974 RMK AO2
KA39 230535Z AUTO 24006KT 10SM SCT100 SCT120 31/07 A2974 RMK AO2
KA39 230515Z AUTO 25006KT 10SM SCT095 SCT120 31/05 A2974 RMK AO2
KA39 230455Z AUTO 20006KT 10SM SCT055 SCT095 SCT110 32/03 A2974 RMK AO2
KA39 230435Z AUTO 26003KT 10SM SCT060 32/04 A2973 RMK AO2
KA39 230415Z AUTO 22003KT 10SM SCT060 SCT075 SCT120 33/04 A2973 RMK AO2
KA39 230355Z AUTO 25005KT 10SM SCT065 BKN090 BKN120 34/03 A2971 RMK AO2
KA39 230335Z AUTO 26007KT 10SM SCT065 SCT085 SCT110 35/02 A2971 RMK AO2
KA39 230315Z AUTO 26008KT 10SM SCT055 SCT110 36/03 A2970 RMK AO2
KA39 230255Z AUTO 26009KT 10SM 37/04 A2970 RMK AO2
KA39 230235Z AUTO 27009KT 10SM SCT100 BKN120 38/04 A2970 RMK AO2
KA39 230215Z AUTO 27009KT 10SM BKN100 OVC120 39/04 A2970 RMK AO2
KA39 230155Z AUTO 27010KT 10SM BKN100 OVC120 40/03 A2970 RMK AO2
KA39 230135Z AUTO 28010KT 10SM BKN100 OVC120 41/03 A2970 RMK AO2
KA39 230115Z AUTO 28010KT 10SM OVC110 41/00 A2970 RMK AO2
KA39 230055Z AUTO 29012KT 10SM OVC110 42/00 A2971 RMK AO2
KA39 230035Z AUTO 29011KT 10SM SCT100 BKN120 42/01 A2971 RMK AO2
KA39 230015Z AUTO 28010KT 10SM BKN110 42/00 A2971 RMK AO2
KA39 222355Z AUTO 28010KT 10SM BKN110 42/00 A2972 RMK AO2
KA39 222335Z AUTO 29010KT 10SM BKN110 42/01 A2973 RMK AO2
KA39 222315Z AUTO 28010KT 10SM BKN110 42/00 A2974 RMK AO2
KA39 222255Z AUTO 28008KT 10SM BKN110 42/M01 A2975 RMK AO2
KA39 222235Z AUTO 29011KT 10SM BKN110 42/00 A2975 RMK AO2
KA39 222215Z AUTO 29011KT 10SM BKN110 42/00 A2976 RMK AO2
KA39 222155Z AUTO 28008KT 10SM SCT100 BKN120 42/02 A2977 RMK AO2
KA39 222135Z AUTO 26004KT 10SM SCT100 SCT120 41/02 A2978 RMK AO2
KA39 222115Z AUTO 28006KT 10SM SCT100 SCT120 41/01 A2979 RMK AO2
KA39 222055Z AUTO 26006KT 10SM SCT100 BKN120 41/01 A2980 RMK AO2
KA39 222035Z AUTO 29007KT 260V320 10SM BKN100 BKN120 40/00 A2981 RMK AO2
KA39 222015Z AUTO 27008KT 230V290 10SM SCT100 SCT120 40/00 A2981 RMK AO2
KA39 221955Z AUTO 26004KT 7SM SCT055 SCT100 SCT120 40/00 A2982 RMK AO2
KA39 221935Z AUTO 28006KT 10SM SCT055 SCT100 SCT120 39/M01 A2983 RMK AO2